createdAt,value
2023-05-03T03:50:26.339Z,3.10
2023-05-03T03:52:57.832Z,2.35
2023-05-03T03:55:29.409Z,2.27
2023-05-03T03:58:01.016Z,2.50
2023-05-03T04:00:34.167Z,2.90
2023-05-03T04:03:07.888Z,2.70
2023-05-03T04:05:39.581Z,2.58
2023-05-03T04:08:11.112Z,2.73
2023-05-03T04:10:43.284Z,2.65
2023-05-03T04:13:14.769Z,2.47
2023-05-03T04:15:46.205Z,2.40
2023-05-03T04:18:17.700Z,2.97
2023-05-03T04:20:49.278Z,2.33
2023-05-03T04:23:20.929Z,2.88
2023-05-03T04:25:52.449Z,2.85
2023-05-03T04:28:25.026Z,2.40
2023-05-03T04:30:56.818Z,2.50
2023-05-03T04:33:29.796Z,2.55
2023-05-03T04:36:01.335Z,3.30
2023-05-03T04:38:33.512Z,3.83
2023-05-03T04:41:05.018Z,4.22
2023-05-03T04:43:36.600Z,4.55
2023-05-03T04:46:08.254Z,5.38
2023-05-03T04:48:40.578Z,5.13
2023-05-03T04:53:43.494Z,5.47
2023-05-03T04:56:15.632Z,5.47
2023-05-03T04:58:47.219Z,6.07
2023-05-03T05:01:19.455Z,6.35
2023-05-03T05:03:57.115Z,5.90
2023-05-03T05:06:28.802Z,5.85
2023-05-03T05:09:00.700Z,6.50
2023-05-03T05:11:32.252Z,6.57
2023-05-03T05:14:03.840Z,7.03
2023-05-03T05:16:35.389Z,6.78
2023-05-03T05:19:06.940Z,5.95
2023-05-03T05:21:41.968Z,6.65
2023-05-03T05:24:13.611Z,7.00
2023-05-03T05:26:45.399Z,7.10
2023-05-03T05:29:16.931Z,7.03
2023-05-03T05:31:48.508Z,5.70
2023-05-03T05:34:19.961Z,6.50
2023-05-03T05:36:52.237Z,6.37
2023-05-03T05:39:24.005Z,6.80
2023-05-03T05:41:55.780Z,7.13
2023-05-03T05:44:27.266Z,7.13
2023-05-03T05:46:58.818Z,7.93
2023-05-03T05:49:30.476Z,7.55
2023-05-03T05:52:02.037Z,7.55
2023-05-03T05:54:33.527Z,8.10
2023-05-03T05:57:04.943Z,8.57
2023-05-03T05:59:36.712Z,8.57
2023-05-03T06:02:16.555Z,9.13
2023-05-03T06:04:48.354Z,8.75
2023-05-03T06:07:19.866Z,8.77
2023-05-03T06:09:51.443Z,8.17
2023-05-03T06:12:22.951Z,7.32
2023-05-03T06:15:02.415Z,8.93
2023-05-03T06:17:35.646Z,8.10
2023-05-03T06:20:12.122Z,7.80
2023-05-03T06:22:43.658Z,8.95
2023-05-03T06:25:17.003Z,9.00
2023-05-03T06:27:49.405Z,8.32
2023-05-03T06:30:20.895Z,8.73
2023-05-03T06:32:52.491Z,8.23
2023-05-03T06:35:24.044Z,9.05
2023-05-03T06:37:55.727Z,8.40
2023-05-03T06:40:27.585Z,9.95
2023-05-03T06:42:59.130Z,10.38
2023-05-03T06:45:30.699Z,10.43
2023-05-03T06:48:02.306Z,10.13
2023-05-03T06:50:33.865Z,11.40
2023-05-03T06:53:05.422Z,9.63
2023-05-03T06:55:36.940Z,11.75
2023-05-03T06:58:11.602Z,10.57
2023-05-03T07:00:43.188Z,11.00
2023-05-03T07:03:14.854Z,11.23
2023-05-03T07:05:47.108Z,10.50
2023-05-03T07:08:18.721Z,10.75
2023-05-03T07:10:50.334Z,10.82
2023-05-03T07:13:21.820Z,9.45
2023-05-03T07:15:53.368Z,10.70
2023-05-03T07:18:25.012Z,9.68
2023-05-03T07:20:56.847Z,10.10
2023-05-03T07:23:28.394Z,9.48
2023-05-03T07:25:59.950Z,10.18
2023-05-03T07:28:31.612Z,9.40
2023-05-03T07:31:04.696Z,9.23
2023-05-03T07:33:37.582Z,10.05
2023-05-03T07:36:09.589Z,8.93
2023-05-03T07:38:41.120Z,9.88
2023-05-03T07:41:12.616Z,10.43
2023-05-03T07:43:47.099Z,10.40
2023-05-03T07:46:18.823Z,10.32
2023-05-03T07:48:50.481Z,12.32
2023-05-03T07:51:21.989Z,10.55
2023-05-03T07:53:53.450Z,11.00
2023-05-03T07:56:27.522Z,11.77
2023-05-03T07:59:08.478Z,11.32
2023-05-03T08:01:41.764Z,11.88
2023-05-03T08:04:13.506Z,11.32
2023-05-03T08:06:45.424Z,12.00
2023-05-03T08:09:17.192Z,11.63
2023-05-03T08:11:48.686Z,11.13
2023-05-03T08:14:20.341Z,11.85
2023-05-03T08:16:51.868Z,11.90
2023-05-03T08:19:23.464Z,12.90
2023-05-03T08:21:55.667Z,12.15
2023-05-03T08:24:27.334Z,12.73
2023-05-03T08:26:59.050Z,12.50
2023-05-03T08:29:30.697Z,12.48
2023-05-03T08:32:02.464Z,14.27
2023-05-03T08:34:33.999Z,13.73
2023-05-03T08:37:05.590Z,13.45
2023-05-03T08:39:37.213Z,12.88
2023-05-03T08:42:09.221Z,13.35
2023-05-03T08:44:48.625Z,13.35
2023-05-03T08:47:21.974Z,13.90
2023-05-03T08:49:53.950Z,14.15
2023-05-03T08:52:25.445Z,14.73
2023-05-03T08:54:57.346Z,13.85
2023-05-03T08:57:29.799Z,14.77
2023-05-03T09:00:01.982Z,13.60
2023-05-03T09:02:35.048Z,15.20
2023-05-03T09:05:38.891Z,14.90
2023-05-03T09:08:13.486Z,14.73
2023-05-03T09:10:45.312Z,15.90
2023-05-03T09:13:16.963Z,15.25
2023-05-03T09:15:55.741Z,15.63
2023-05-03T09:18:27.363Z,15.00
2023-05-03T09:20:59.239Z,17.38
2023-05-03T09:23:31.252Z,15.15
2023-05-03T09:26:03.002Z,15.25
2023-05-03T09:28:42.131Z,14.38
2023-05-03T09:31:14.478Z,13.60
2023-05-03T09:33:46.193Z,13.43
2023-05-03T09:36:17.881Z,14.60
2023-05-03T09:38:51.718Z,14.55
2023-05-03T09:41:31.657Z,14.65
2023-05-03T09:44:03.286Z,14.48
2023-05-03T09:46:34.859Z,14.18
2023-05-03T09:49:06.783Z,14.60
2023-05-03T09:51:41.208Z,13.35
2023-05-03T09:54:14.996Z,12.57
2023-05-03T09:56:47.682Z,14.02
2023-05-03T09:59:19.255Z,14.50
2023-05-03T10:01:55.709Z,14.00
2023-05-03T10:04:28.609Z,13.40
2023-05-03T10:07:07.401Z,13.68
2023-05-03T10:09:58.802Z,11.98
2023-05-03T10:12:30.617Z,12.65
2023-05-03T10:15:07.367Z,12.55
2023-05-03T10:17:46.973Z,12.35
2023-05-03T10:20:33.415Z,12.48
2023-05-03T10:23:05.112Z,13.55
2023-05-03T10:25:38.873Z,14.50
2023-05-03T10:28:10.845Z,13.18
2023-05-03T10:30:42.356Z,13.63
2023-05-03T10:33:14.073Z,13.07
2023-05-03T10:35:53.692Z,13.70
2023-05-03T10:38:26.983Z,13.88
2023-05-03T10:41:01.397Z,14.05
2023-05-03T10:43:35.879Z,13.18
2023-05-03T10:46:29.214Z,14.52
2023-05-03T10:49:18.805Z,13.73
2023-05-03T10:51:50.449Z,12.43
2023-05-03T10:54:22.004Z,13.45
2023-05-03T10:56:56.059Z,12.55
2023-05-03T10:59:47.489Z,13.35
2023-05-03T11:02:27.180Z,12.27
2023-05-03T11:05:04.354Z,13.40
2023-05-03T11:07:36.077Z,13.05
2023-05-03T11:10:17.899Z,12.15
2023-05-03T11:12:49.452Z,12.60
2023-05-03T11:15:21.221Z,14.05
2023-05-03T11:17:53.007Z,13.70
2023-05-03T11:20:24.844Z,13.15
2023-05-03T11:22:56.422Z,13.35
2023-05-03T11:25:28.233Z,14.48
2023-05-03T11:28:01.925Z,14.25
2023-05-03T11:30:35.131Z,15.65
2023-05-03T11:33:06.914Z,13.07
2023-05-03T11:35:39.145Z,12.68
2023-05-03T11:40:42.126Z,14.40
2023-05-03T11:43:13.729Z,13.82
2023-05-03T11:45:48.495Z,12.65
2023-05-03T11:48:20.173Z,13.43
2023-05-03T11:51:02.604Z,13.60
2023-05-03T11:56:12.322Z,12.55
2023-05-03T11:59:10.064Z,11.30
2023-05-03T12:01:42.347Z,12.95
2023-05-03T12:04:14.415Z,11.25
2023-05-03T12:06:52.833Z,12.48
2023-05-03T12:09:27.306Z,13.68
2023-05-03T12:12:06.534Z,12.23
2023-05-03T12:15:03.756Z,11.50
2023-05-03T12:17:38.725Z,11.07
2023-05-03T12:23:09.854Z,8.90
2023-05-03T12:25:44.403Z,8.38
2023-05-03T12:28:20.923Z,9.07
2023-05-03T12:30:53.645Z,9.57
2023-05-03T12:33:28.183Z,7.28
2023-05-03T12:36:02.680Z,7.10
2023-05-03T12:38:37.522Z,6.78
2023-05-03T12:41:09.619Z,6.70
2023-05-03T12:46:33.240Z,8.13
2023-05-03T12:49:07.646Z,7.80
2023-05-03T12:51:42.600Z,6.97
2023-05-03T12:54:18.577Z,5.63
2023-05-03T12:56:54.784Z,6.15
2023-05-03T13:04:57.021Z,6.47
2023-05-03T13:07:30.484Z,5.87
2023-05-03T13:12:38.893Z,4.97
2023-05-03T13:15:10.493Z,6.28
2023-05-03T13:17:43.055Z,5.20
2023-05-03T13:20:16.199Z,5.30
2023-05-03T13:22:51.129Z,5.13
2023-05-03T13:25:25.265Z,6.22
2023-05-03T13:27:57.425Z,5.70
2023-05-03T13:30:29.501Z,5.63
2023-05-03T13:35:32.509Z,6.07
2023-05-03T13:38:04.005Z,6.45
2023-05-03T13:40:35.512Z,5.25
2023-05-03T13:43:07.030Z,4.65
2023-05-03T13:45:38.633Z,4.78
2023-05-03T13:48:17.639Z,5.40
2023-05-03T13:50:50.804Z,5.93
2023-05-03T13:53:22.384Z,5.60
2023-05-03T13:55:53.919Z,4.82
2023-05-03T13:58:25.591Z,4.30
2023-05-03T14:00:57.200Z,5.03
2023-05-03T14:03:28.998Z,5.30
2023-05-03T14:06:00.793Z,5.32
2023-05-03T14:08:33.786Z,5.32
2023-05-03T14:11:06.324Z,4.70
2023-05-03T14:13:51.509Z,5.30
2023-05-03T14:19:01.634Z,5.57
2023-05-03T14:21:33.203Z,5.03
2023-05-03T14:24:05.352Z,5.55
2023-05-03T14:26:37.483Z,4.93
2023-05-03T14:29:09.123Z,5.20
2023-05-03T14:31:40.904Z,4.75
2023-05-03T14:34:12.888Z,4.82
2023-05-03T14:36:44.419Z,3.88
2023-05-03T14:39:16.571Z,4.18
2023-05-03T14:41:50.135Z,3.80
2023-05-03T14:44:21.874Z,3.10
2023-05-03T14:46:53.623Z,3.22
2023-05-03T14:49:25.598Z,2.45
2023-05-03T14:54:29.141Z,2.45
2023-05-03T14:57:01.323Z,2.42
2023-05-03T14:59:33.676Z,2.08
2023-05-03T15:02:05.262Z,2.35
2023-05-03T15:07:11.554Z,2.20
2023-05-03T15:09:44.779Z,1.83
2023-05-03T15:12:16.506Z,1.77
2023-05-03T15:14:48.326Z,1.90
2023-05-03T15:17:20.104Z,1.67
2023-05-03T15:19:52.755Z,1.90
2023-05-03T15:22:24.373Z,1.75
2023-05-03T15:24:55.880Z,2.08
2023-05-03T15:27:27.405Z,2.38
2023-05-03T15:29:58.998Z,2.20
2023-05-03T15:32:31.038Z,2.08
2023-05-03T15:35:02.550Z,1.70
2023-05-03T15:37:37.107Z,1.63
2023-05-03T15:40:10.520Z,2.83
2023-05-03T15:42:42.008Z,2.60
2023-05-03T15:45:13.934Z,2.50
2023-05-03T15:47:45.967Z,3.50
2023-05-03T15:50:17.500Z,2.25
2023-05-03T15:55:20.427Z,2.33
2023-05-03T15:57:53.157Z,2.88
2023-05-03T16:00:25.763Z,2.90
2023-05-03T16:02:58.016Z,2.70
2023-05-03T16:05:31.077Z,2.58
2023-05-03T16:08:02.690Z,2.55
2023-05-03T16:10:35.360Z,2.63
2023-05-03T16:13:08.376Z,2.67
2023-05-03T16:15:40.302Z,2.75
2023-05-03T16:20:43.751Z,3.25
2023-05-03T16:23:15.871Z,3.15
2023-05-03T16:25:47.382Z,2.55
2023-05-03T16:28:18.901Z,2.88
2023-05-03T16:30:50.428Z,3.28
2023-05-03T16:33:22.199Z,3.40
2023-05-03T16:35:53.796Z,3.08
2023-05-03T16:38:30.327Z,3.20
2023-05-03T16:41:02.130Z,2.90
2023-05-03T16:43:33.592Z,3.47
2023-05-03T16:46:05.601Z,3.60
2023-05-03T16:48:37.280Z,2.83
2023-05-03T16:51:08.852Z,3.42
2023-05-03T16:53:41.416Z,3.38
2023-05-03T16:56:12.919Z,3.30
2023-05-03T16:58:44.404Z,4.50
2023-05-03T17:01:16.304Z,3.00
2023-05-03T17:03:47.950Z,3.70
2023-05-03T17:06:19.647Z,2.85
2023-05-03T17:08:51.216Z,2.85
2023-05-03T17:11:22.742Z,2.95
2023-05-03T17:13:54.196Z,2.80
2023-05-03T17:16:26.351Z,3.47
2023-05-03T17:18:57.971Z,3.17
2023-05-03T17:21:29.575Z,2.80
2023-05-03T17:24:01.079Z,3.45
2023-05-03T17:26:32.674Z,2.97
2023-05-03T17:29:06.224Z,3.40
2023-05-03T17:31:37.823Z,2.63
2023-05-03T17:34:09.335Z,2.35
2023-05-03T17:36:41.374Z,2.85
2023-05-03T17:39:13.181Z,2.42
2023-05-03T17:41:44.795Z,2.70
2023-05-03T17:44:16.650Z,3.00
2023-05-03T17:46:48.589Z,2.97
2023-05-03T17:49:20.200Z,3.08
2023-05-03T17:51:51.951Z,3.15
2023-05-03T17:54:24.412Z,2.85
2023-05-03T17:56:56.429Z,2.92
2023-05-03T17:59:27.991Z,3.15
2023-05-03T18:02:00.701Z,3.17
2023-05-03T18:04:32.785Z,3.45
2023-05-03T18:07:04.325Z,3.33
2023-05-03T18:09:35.898Z,3.00
2023-05-03T18:12:07.421Z,3.40
2023-05-03T18:14:38.940Z,2.72
2023-05-03T18:17:10.493Z,3.70
2023-05-03T18:19:45.166Z,3.42
2023-05-03T18:22:16.659Z,3.10
2023-05-03T18:24:54.529Z,3.40
2023-05-03T18:27:25.976Z,3.10
2023-05-03T18:29:58.491Z,3.47
2023-05-03T18:32:29.976Z,2.75
2023-05-03T18:35:02.485Z,2.85
2023-05-03T18:37:35.081Z,2.72
2023-05-03T18:40:08.894Z,2.63
2023-05-03T18:42:40.365Z,2.65
2023-05-03T18:45:12.127Z,2.85
2023-05-03T18:47:43.684Z,3.42
2023-05-03T18:50:17.357Z,3.30
2023-05-03T18:52:50.687Z,2.55
2023-05-03T18:55:22.283Z,2.72
2023-05-03T18:57:53.787Z,3.05
2023-05-03T19:00:25.300Z,3.20
2023-05-03T19:02:56.872Z,3.15
2023-05-03T19:05:28.455Z,3.22
2023-05-03T19:08:00.422Z,3.80
2023-05-03T19:10:32.964Z,4.70
2023-05-03T19:13:04.951Z,8.73
2023-05-03T19:15:36.659Z,7.07
2023-05-03T19:18:08.288Z,6.03
2023-05-03T19:20:39.886Z,4.43
2023-05-03T19:23:12.902Z,3.80
2023-05-03T19:25:44.434Z,3.70
2023-05-03T19:28:16.006Z,4.00
2023-05-03T19:30:51.424Z,4.15
2023-05-03T19:33:23.222Z,4.03
2023-05-03T19:35:56.822Z,3.88
2023-05-03T19:38:29.277Z,4.13
2023-05-03T19:41:05.886Z,4.30
2023-05-03T19:43:39.608Z,11.90
2023-05-03T19:46:11.310Z,6.60
2023-05-03T19:48:43.060Z,5.97
2023-05-03T19:53:48.786Z,4.32
2023-05-03T19:56:22.136Z,4.75
2023-05-03T19:58:54.435Z,4.93
2023-05-03T20:01:26.396Z,4.47
2023-05-03T20:03:58.129Z,4.38
2023-05-03T20:06:29.897Z,5.25
2023-05-03T20:09:01.782Z,4.40
2023-05-03T20:11:33.299Z,4.93
2023-05-03T20:14:04.880Z,5.50
2023-05-03T20:16:38.966Z,5.68
2023-05-03T20:19:10.998Z,5.90
2023-05-03T20:21:42.559Z,5.70
2023-05-03T20:24:15.379Z,6.00
2023-05-03T20:26:46.923Z,5.97
2023-05-03T20:29:18.642Z,6.10
2023-05-03T20:31:57.285Z,5.75
2023-05-03T20:34:30.373Z,6.30
2023-05-03T20:37:02.001Z,6.53
2023-05-03T20:39:35.200Z,5.80
2023-05-03T20:42:07.699Z,6.05
2023-05-03T20:44:39.234Z,6.55
2023-05-03T20:47:11.058Z,6.25
2023-05-03T20:49:42.627Z,6.43
2023-05-03T20:52:14.174Z,6.70
2023-05-03T20:54:46.526Z,6.30
2023-05-03T20:57:18.105Z,6.47
2023-05-03T20:59:49.751Z,6.40
2023-05-03T21:02:21.973Z,6.88
2023-05-03T21:04:53.632Z,7.10
2023-05-03T21:07:26.853Z,7.18
2023-05-03T21:09:59.359Z,7.13
2023-05-03T21:12:30.868Z,6.90
2023-05-03T21:15:02.382Z,7.35
2023-05-03T21:17:33.940Z,8.38
2023-05-03T21:20:06.372Z,6.53
2023-05-03T21:22:37.997Z,7.60
2023-05-03T21:25:11.390Z,7.03
2023-05-03T21:27:42.908Z,7.22
2023-05-03T21:30:14.472Z,7.00
2023-05-03T21:32:49.526Z,6.93
2023-05-03T21:35:21.119Z,6.43
2023-05-03T21:37:52.718Z,7.15
2023-05-03T21:40:24.218Z,6.53
2023-05-03T21:42:55.698Z,6.18
2023-05-03T21:45:27.184Z,6.55
2023-05-03T21:48:00.709Z,6.55
2023-05-03T21:50:32.257Z,6.47
2023-05-03T21:53:03.796Z,6.65
2023-05-03T21:55:36.099Z,6.18
2023-05-03T22:00:40.448Z,5.60
2023-05-03T22:03:12.371Z,6.07
2023-05-03T22:05:48.793Z,5.47
2023-05-03T22:08:20.605Z,6.10
2023-05-03T22:10:52.324Z,6.40
2023-05-03T22:13:23.890Z,5.63
2023-05-03T22:15:55.577Z,5.97
2023-05-03T22:18:28.065Z,6.10
2023-05-03T22:20:59.632Z,5.68
2023-05-03T22:23:31.270Z,6.38
2023-05-03T22:26:02.759Z,5.95
2023-05-03T22:28:34.227Z,5.03
2023-05-03T22:31:06.200Z,5.90
2023-05-03T22:33:37.810Z,5.85
2023-05-03T22:36:09.328Z,6.00
2023-05-03T22:38:42.980Z,5.70
2023-05-03T22:41:14.792Z,6.05
2023-05-03T22:43:46.281Z,5.80
2023-05-03T22:46:20.544Z,5.53
2023-05-03T22:48:52.646Z,5.68
2023-05-03T22:51:24.850Z,6.18
2023-05-03T22:53:56.358Z,6.22
2023-05-03T22:56:27.880Z,5.78
2023-05-03T22:58:59.340Z,6.17
2023-05-03T23:01:30.881Z,6.73
2023-05-03T23:04:02.777Z,6.63
2023-05-03T23:06:34.367Z,6.05
2023-05-03T23:09:06.368Z,6.35
2023-05-03T23:11:37.914Z,5.30
2023-05-03T23:14:09.434Z,5.82
2023-05-03T23:16:41.639Z,6.47
2023-05-03T23:19:13.266Z,6.07
2023-05-03T23:21:44.731Z,6.03
2023-05-03T23:24:16.213Z,6.10
2023-05-03T23:26:47.673Z,6.50
2023-05-03T23:29:19.547Z,6.72
2023-05-03T23:31:51.401Z,6.22
2023-05-03T23:34:23.428Z,6.57
2023-05-03T23:36:54.906Z,6.68
2023-05-03T23:39:26.388Z,6.03
2023-05-03T23:41:58.808Z,6.22
2023-05-03T23:44:42.952Z,6.40
2023-05-03T23:47:21.790Z,6.40
2023-05-03T23:49:53.334Z,6.10
2023-05-03T23:52:24.826Z,6.35
2023-05-03T23:54:56.318Z,6.83
2023-05-03T23:57:27.753Z,6.63
2023-05-03T23:59:59.220Z,6.20
